createdAt,value
2019-03-27T00:01:16.851Z,6.10
2019-03-27T00:03:45.587Z,6.10
2019-03-27T00:06:14.238Z,6.10
2019-03-27T00:08:42.727Z,6.10
2019-03-27T00:11:11.259Z,6.10
2019-03-27T00:13:39.843Z,6.10
2019-03-27T00:16:08.384Z,6.10
2019-03-27T00:18:36.815Z,6.10
2019-03-27T00:21:05.301Z,6.10
2019-03-27T00:23:33.821Z,6.10
2019-03-27T00:26:02.368Z,6.10
2019-03-27T00:28:30.794Z,6.10
2019-03-27T00:30:59.267Z,6.10
2019-03-27T00:33:27.855Z,6.10
2019-03-27T00:35:56.390Z,6.10
2019-03-27T00:38:24.905Z,6.10
2019-03-27T00:40:53.443Z,6.20
2019-03-27T00:43:21.894Z,6.20
2019-03-27T00:45:50.452Z,6.20
2019-03-27T00:48:18.897Z,6.30
2019-03-27T00:50:47.443Z,6.30
2019-03-27T00:53:15.999Z,6.30
2019-03-27T00:55:44.532Z,6.40
2019-03-27T00:58:13.072Z,6.40
2019-03-27T01:00:47.331Z,6.40
2019-03-27T01:03:15.786Z,6.40
2019-03-27T01:05:44.532Z,6.40
2019-03-27T01:08:13.020Z,6.20
2019-03-27T01:10:41.475Z,6.00
2019-03-27T01:13:09.966Z,5.80
2019-03-27T01:15:40.081Z,5.60
2019-03-27T01:18:08.687Z,5.60
2019-03-27T01:20:37.211Z,5.70
2019-03-27T01:23:05.709Z,5.80
2019-03-27T01:25:34.330Z,5.80
2019-03-27T01:28:02.861Z,5.80
2019-03-27T01:30:31.316Z,5.80
2019-03-27T01:32:59.794Z,5.90
2019-03-27T01:35:28.342Z,5.80
2019-03-27T01:37:56.896Z,5.80
2019-03-27T01:40:25.353Z,5.80
2019-03-27T01:42:54.161Z,5.90
2019-03-27T01:45:22.696Z,5.90
2019-03-27T01:47:51.185Z,5.90
2019-03-27T01:50:19.807Z,5.90
2019-03-27T01:52:48.349Z,6.00
2019-03-27T01:55:16.856Z,6.00
2019-03-27T01:57:45.394Z,6.00
2019-03-27T02:00:14.038Z,6.10
2019-03-27T02:02:42.531Z,6.10
2019-03-27T02:05:11.415Z,6.20
2019-03-27T02:07:39.849Z,6.20
2019-03-27T02:10:09.449Z,6.20
2019-03-27T02:12:38.117Z,6.20
2019-03-27T02:15:08.695Z,6.30
2019-03-27T02:17:37.184Z,6.30
2019-03-27T02:20:08.089Z,6.30
2019-03-27T02:22:36.546Z,6.30
2019-03-27T02:25:07.078Z,6.30
2019-03-27T02:27:35.522Z,6.30
2019-03-27T02:30:06.391Z,6.30
2019-03-27T02:32:34.831Z,6.30
2019-03-27T02:35:03.445Z,6.30
2019-03-27T02:37:32.159Z,6.30
2019-03-27T02:40:00.625Z,6.20
2019-03-27T02:42:29.063Z,6.30
2019-03-27T02:44:57.658Z,6.30
2019-03-27T02:47:26.332Z,6.30
2019-03-27T02:49:54.792Z,6.30
2019-03-27T02:52:23.255Z,6.20
2019-03-27T02:54:51.891Z,6.30
2019-03-27T02:57:20.342Z,6.30
2019-03-27T02:59:48.990Z,6.30
2019-03-27T03:02:17.466Z,6.30
2019-03-27T03:04:46.034Z,6.20
2019-03-27T03:07:14.518Z,6.30
2019-03-27T03:09:42.961Z,6.20
2019-03-27T03:12:11.428Z,6.20
2019-03-27T03:14:39.964Z,6.20
2019-03-27T03:17:08.408Z,6.30
2019-03-27T03:19:36.957Z,6.30
2019-03-27T03:22:05.565Z,6.30
2019-03-27T03:24:34.012Z,6.30
2019-03-27T03:27:02.495Z,6.30
2019-03-27T03:29:31.009Z,6.30
2019-03-27T03:31:59.627Z,6.30
2019-03-27T03:34:28.245Z,6.30
2019-03-27T03:36:56.956Z,6.30
2019-03-27T03:39:25.441Z,6.30
2019-03-27T03:41:53.972Z,6.30
2019-03-27T03:44:22.516Z,6.30
2019-03-27T03:46:59.768Z,6.30
2019-03-27T03:49:21.304Z,6.30
2019-03-27T03:51:50.182Z,6.30
2019-03-27T03:54:19.475Z,6.30
2019-03-27T03:56:50.608Z,6.20
2019-03-27T03:59:20.552Z,6.30
2019-03-27T04:01:52.198Z,6.30
2019-03-27T04:04:22.284Z,6.20
2019-03-27T04:06:50.764Z,6.20
2019-03-27T04:09:24.619Z,6.20
2019-03-27T04:11:53.082Z,6.20
2019-03-27T04:14:21.540Z,6.30
2019-03-27T04:16:50.034Z,6.10
2019-03-27T04:19:18.546Z,5.80
2019-03-27T04:21:47.184Z,5.70
2019-03-27T04:24:16.075Z,5.70
2019-03-27T04:26:44.509Z,5.60
2019-03-27T04:29:12.976Z,5.50
2019-03-27T04:31:41.515Z,5.40
2019-03-27T04:34:09.990Z,5.40
2019-03-27T04:36:38.431Z,5.50
2019-03-27T04:39:07.053Z,5.50
2019-03-27T04:41:35.571Z,5.50
2019-03-27T04:44:04.190Z,5.60
2019-03-27T04:46:32.768Z,5.60
2019-03-27T04:49:01.237Z,5.70
2019-03-27T04:51:29.670Z,5.80
2019-03-27T04:53:58.137Z,5.80
2019-03-27T04:56:26.586Z,5.90
2019-03-27T04:58:55.050Z,5.90
2019-03-27T05:01:23.564Z,5.80
2019-03-27T05:03:52.765Z,5.80
2019-03-27T05:06:21.289Z,5.80
2019-03-27T05:08:49.780Z,5.80
2019-03-27T05:11:18.529Z,5.90
2019-03-27T05:13:47.055Z,6.00
2019-03-27T05:16:15.522Z,6.00
2019-03-27T05:18:44.085Z,6.00
2019-03-27T05:21:12.551Z,6.00
2019-03-27T05:23:41.103Z,6.10
2019-03-27T05:26:09.666Z,6.00
2019-03-27T05:28:38.247Z,6.10
2019-03-27T05:31:06.788Z,6.10
2019-03-27T05:33:35.227Z,6.10
2019-03-27T05:36:03.846Z,6.10
2019-03-27T05:38:32.393Z,6.10
2019-03-27T05:41:00.858Z,6.10
2019-03-27T05:43:29.328Z,6.00
2019-03-27T05:45:57.803Z,6.00
2019-03-27T05:48:26.332Z,5.80
2019-03-27T05:50:54.799Z,5.90
2019-03-27T05:53:23.248Z,5.90
2019-03-27T05:55:51.716Z,5.90
2019-03-27T05:58:20.316Z,6.00
2019-03-27T06:00:48.786Z,6.10
2019-03-27T06:03:17.241Z,6.20
2019-03-27T06:05:45.708Z,6.30
2019-03-27T06:08:14.242Z,6.40
2019-03-27T06:10:42.726Z,6.40
2019-03-27T06:13:11.181Z,6.50
2019-03-27T06:15:39.625Z,6.60
2019-03-27T06:18:13.359Z,6.70
2019-03-27T06:20:38.361Z,6.80
2019-03-27T06:23:06.839Z,6.90
2019-03-27T06:25:35.320Z,7.00
2019-03-27T06:28:03.897Z,7.10
2019-03-27T06:30:32.412Z,7.30
2019-03-27T06:33:00.895Z,7.40
2019-03-27T06:35:29.483Z,7.50
2019-03-27T06:37:58.020Z,7.60
2019-03-27T06:40:26.459Z,7.70
2019-03-27T06:42:54.956Z,7.80
2019-03-27T06:45:23.408Z,7.90
2019-03-27T06:47:51.878Z,8.00
2019-03-27T06:50:20.391Z,8.10
2019-03-27T06:52:48.866Z,8.20
2019-03-27T06:55:17.396Z,8.30
2019-03-27T06:57:45.931Z,8.40
2019-03-27T07:00:15.037Z,8.50
2019-03-27T07:02:43.592Z,8.60
2019-03-27T07:05:12.173Z,8.60
2019-03-27T07:07:40.746Z,8.70
2019-03-27T07:10:09.372Z,8.70
2019-03-27T07:12:37.908Z,8.70
2019-03-27T07:15:07.068Z,8.80
2019-03-27T07:17:35.566Z,8.80
2019-03-27T07:20:06.087Z,8.80
2019-03-27T07:22:34.548Z,8.80
2019-03-27T07:25:03.906Z,8.80
2019-03-27T07:27:32.596Z,8.90
2019-03-27T07:30:01.195Z,8.90
2019-03-27T07:32:29.638Z,9.00
2019-03-27T07:34:58.236Z,9.20
2019-03-27T07:37:26.813Z,9.30
2019-03-27T07:39:55.299Z,9.30
2019-03-27T07:42:23.778Z,9.20
2019-03-27T07:44:52.306Z,9.20
2019-03-27T07:47:21.334Z,9.20
2019-03-27T07:49:49.859Z,9.10
2019-03-27T07:52:18.307Z,9.10
2019-03-27T07:54:46.766Z,9.20
2019-03-27T07:57:15.209Z,9.30
2019-03-27T07:59:43.700Z,9.30
2019-03-27T08:02:12.520Z,9.30
2019-03-27T08:04:41.181Z,9.30
2019-03-27T08:07:09.771Z,9.30
2019-03-27T08:09:38.270Z,9.40
2019-03-27T08:12:06.887Z,9.30
2019-03-27T08:14:35.418Z,9.40
2019-03-27T08:17:03.956Z,9.30
2019-03-27T08:19:32.590Z,9.30
2019-03-27T08:22:01.248Z,9.40
2019-03-27T08:24:29.697Z,9.40
2019-03-27T08:26:58.309Z,9.50
2019-03-27T08:29:26.935Z,9.70
2019-03-27T08:31:55.561Z,9.70
2019-03-27T08:34:24.808Z,9.70
2019-03-27T08:36:53.343Z,9.70
2019-03-27T08:39:21.858Z,9.90
2019-03-27T08:41:50.398Z,9.90
2019-03-27T08:44:18.932Z,9.90
2019-03-27T08:46:47.674Z,10.00
2019-03-27T08:49:22.141Z,10.20
2019-03-27T08:51:46.720Z,10.30
2019-03-27T08:54:15.238Z,10.40
2019-03-27T08:56:43.721Z,10.40
2019-03-27T08:59:12.190Z,10.40
2019-03-27T09:01:40.667Z,10.50
2019-03-27T09:04:09.205Z,10.60
2019-03-27T09:06:37.686Z,10.60
2019-03-27T09:09:07.849Z,10.70
2019-03-27T09:11:36.804Z,10.80
2019-03-27T09:14:05.476Z,10.90
2019-03-27T09:16:33.929Z,10.80
2019-03-27T09:19:02.565Z,10.90
2019-03-27T09:21:31.006Z,10.90
2019-03-27T09:23:59.524Z,11.00
2019-03-27T09:26:27.975Z,11.20
2019-03-27T09:28:56.543Z,11.20
2019-03-27T09:31:25.003Z,11.30
2019-03-27T09:33:53.481Z,11.20
2019-03-27T09:36:21.929Z,11.30
2019-03-27T09:38:50.593Z,11.30
2019-03-27T09:41:21.508Z,11.30
2019-03-27T09:43:49.319Z,11.40
2019-03-27T09:46:17.775Z,11.20
2019-03-27T09:48:46.236Z,11.20
2019-03-27T09:51:14.778Z,11.30
2019-03-27T09:53:43.339Z,11.30
2019-03-27T09:56:19.081Z,11.40
2019-03-27T09:58:42.206Z,11.30
2019-03-27T10:01:10.725Z,11.40
2019-03-27T10:03:39.315Z,11.60
2019-03-27T10:06:07.786Z,11.40
2019-03-27T10:08:36.418Z,11.30
2019-03-27T10:11:05.307Z,11.20
2019-03-27T10:13:33.855Z,11.10
2019-03-27T10:16:02.386Z,11.10
2019-03-27T10:18:30.921Z,11.10
2019-03-27T10:20:59.462Z,11.10
2019-03-27T10:23:27.916Z,11.10
2019-03-27T10:25:56.926Z,11.00
2019-03-27T10:28:25.361Z,11.10
2019-03-27T10:30:53.926Z,11.40
2019-03-27T10:33:22.440Z,11.60
2019-03-27T10:35:51.014Z,12.00
2019-03-27T10:38:19.543Z,12.40
2019-03-27T10:40:48.160Z,12.70
2019-03-27T10:43:16.752Z,12.70
2019-03-27T10:45:45.308Z,12.80
2019-03-27T10:48:13.753Z,12.90
2019-03-27T10:50:42.359Z,12.90
2019-03-27T10:53:11.759Z,12.80
2019-03-27T10:55:40.243Z,12.80
2019-03-27T10:58:08.851Z,12.60
2019-03-27T11:00:37.386Z,12.20
2019-03-27T11:03:05.847Z,12.20
2019-03-27T11:05:34.318Z,12.00
2019-03-27T11:08:02.758Z,11.80
2019-03-27T11:10:31.380Z,11.70
2019-03-27T11:12:59.827Z,11.70
2019-03-27T11:15:28.405Z,11.70
2019-03-27T11:17:58.085Z,11.70
2019-03-27T11:20:31.338Z,11.60
2019-03-27T11:22:56.754Z,11.70
2019-03-27T11:25:25.333Z,11.90
2019-03-27T11:27:53.880Z,12.00
2019-03-27T11:30:25.419Z,12.20
2019-03-27T11:32:53.898Z,12.20
2019-03-27T11:35:22.418Z,12.20
2019-03-27T11:37:50.917Z,12.30
2019-03-27T11:40:19.367Z,12.40
2019-03-27T11:42:47.838Z,12.50
2019-03-27T11:45:16.421Z,12.50
2019-03-27T11:47:44.902Z,12.60
2019-03-27T11:50:14.677Z,12.70
2019-03-27T11:52:43.217Z,12.70
2019-03-27T11:55:12.105Z,12.80
2019-03-27T11:57:40.755Z,13.10
2019-03-27T12:00:10.693Z,13.60
2019-03-27T12:02:39.239Z,13.90
2019-03-27T12:05:08.607Z,14.10
2019-03-27T12:07:37.114Z,14.10
2019-03-27T12:10:08.073Z,14.20
2019-03-27T12:12:36.535Z,14.10
2019-03-27T12:15:06.423Z,14.00
2019-03-27T12:17:35.430Z,14.00
2019-03-27T12:20:05.209Z,13.90
2019-03-27T12:22:33.723Z,14.10
2019-03-27T12:25:02.162Z,14.20
2019-03-27T12:27:30.669Z,14.20
2019-03-27T12:29:59.419Z,13.90
2019-03-27T12:32:27.934Z,13.60
2019-03-27T12:34:56.426Z,13.40
2019-03-27T12:37:24.997Z,13.30
2019-03-27T12:39:53.644Z,13.40
2019-03-27T12:42:22.129Z,13.40
2019-03-27T12:44:50.603Z,13.30
2019-03-27T12:47:19.047Z,13.30
2019-03-27T12:49:47.526Z,12.90
2019-03-27T12:52:15.986Z,12.90
2019-03-27T12:54:44.525Z,12.80
2019-03-27T12:57:12.992Z,12.80
2019-03-27T12:59:41.542Z,12.70
2019-03-27T13:02:10.087Z,12.60
2019-03-27T13:04:38.564Z,12.60
2019-03-27T13:07:07.073Z,12.70
2019-03-27T13:09:35.610Z,12.80
2019-03-27T13:12:04.303Z,12.90
2019-03-27T13:14:33.032Z,13.00
2019-03-27T13:17:01.472Z,13.00
2019-03-27T13:19:29.973Z,13.10
2019-03-27T13:21:58.526Z,13.30
2019-03-27T13:24:27.032Z,13.40
2019-03-27T13:26:55.521Z,13.50
2019-03-27T13:29:23.969Z,13.60
2019-03-27T13:31:52.743Z,13.70
2019-03-27T13:34:21.182Z,13.60
2019-03-27T13:36:49.827Z,13.50
2019-03-27T13:39:18.339Z,13.30
2019-03-27T13:41:46.874Z,13.10
2019-03-27T13:44:15.770Z,13.10
2019-03-27T13:46:44.360Z,13.10
2019-03-27T13:49:12.931Z,13.10
2019-03-27T13:51:41.666Z,13.10
2019-03-27T13:54:10.154Z,13.10
2019-03-27T13:56:38.635Z,13.00
2019-03-27T13:59:07.212Z,13.00
2019-03-27T14:01:35.682Z,12.90
2019-03-27T14:04:04.217Z,13.00
2019-03-27T14:06:32.686Z,12.90
2019-03-27T14:09:01.215Z,13.00
2019-03-27T14:11:29.687Z,13.10
2019-03-27T14:14:10.586Z,13.00
2019-03-27T14:16:28.432Z,12.90
2019-03-27T14:18:56.962Z,12.90
2019-03-27T14:21:25.416Z,12.90
2019-03-27T14:23:53.881Z,13.00
2019-03-27T14:26:22.442Z,13.10
2019-03-27T14:28:51.183Z,13.10
2019-03-27T14:31:19.629Z,13.10
2019-03-27T14:33:48.213Z,13.10
2019-03-27T14:36:16.738Z,13.10
2019-03-27T14:38:45.201Z,13.20
2019-03-27T14:41:14.114Z,13.20
2019-03-27T14:43:42.702Z,13.00
2019-03-27T14:46:11.224Z,13.10
2019-03-27T14:48:39.901Z,13.10
2019-03-27T14:51:08.350Z,13.20
2019-03-27T14:53:37.195Z,13.10
2019-03-27T14:56:05.775Z,13.10
2019-03-27T14:58:34.320Z,13.20
2019-03-27T15:01:02.788Z,13.30
2019-03-27T15:03:31.403Z,13.40
2019-03-27T15:05:59.906Z,13.40
2019-03-27T15:08:28.443Z,13.40
2019-03-27T15:10:56.962Z,13.30
2019-03-27T15:13:25.620Z,13.40
2019-03-27T15:15:54.170Z,13.20
2019-03-27T15:18:22.756Z,13.30
2019-03-27T15:20:51.278Z,13.40
2019-03-27T15:23:19.973Z,13.30
2019-03-27T15:25:48.580Z,13.30
2019-03-27T15:28:17.103Z,13.30
2019-03-27T15:30:45.783Z,13.30
2019-03-27T15:33:14.310Z,13.30
2019-03-27T15:35:44.648Z,13.40
2019-03-27T15:38:13.007Z,13.30
2019-03-27T15:40:45.630Z,13.20
2019-03-27T15:43:14.143Z,13.30
2019-03-27T15:45:42.717Z,13.20
2019-03-27T15:48:11.326Z,13.10
2019-03-27T15:50:53.650Z,13.20
2019-03-27T15:53:10.092Z,13.10
2019-03-27T15:55:38.658Z,13.10
2019-03-27T15:58:07.180Z,13.10
2019-03-27T16:00:35.900Z,13.00
2019-03-27T16:03:04.518Z,12.90
2019-03-27T16:05:33.045Z,13.00
2019-03-27T16:08:01.678Z,12.90
2019-03-27T16:10:30.121Z,12.90
2019-03-27T16:12:59.949Z,12.80
2019-03-27T16:15:28.467Z,12.80
2019-03-27T16:17:56.951Z,12.70
2019-03-27T16:20:25.459Z,12.70
2019-03-27T16:22:54.010Z,12.80
2019-03-27T16:25:22.653Z,12.60
2019-03-27T16:27:51.175Z,12.50
2019-03-27T16:30:19.772Z,12.50
2019-03-27T16:32:48.294Z,12.40
2019-03-27T16:35:16.975Z,12.40
2019-03-27T16:37:45.522Z,12.30
2019-03-27T16:40:14.316Z,12.30
2019-03-27T16:42:42.884Z,12.20
2019-03-27T16:45:12.066Z,12.10
2019-03-27T16:47:40.548Z,12.10
2019-03-27T16:50:09.734Z,12.00
2019-03-27T16:52:38.344Z,12.00
2019-03-27T16:55:07.900Z,12.10
2019-03-27T16:57:36.395Z,12.00
2019-03-27T17:00:07.076Z,11.90
2019-03-27T17:02:35.691Z,11.90
2019-03-27T17:05:06.607Z,11.90
2019-03-27T17:07:35.174Z,11.90
2019-03-27T17:10:04.800Z,11.80
2019-03-27T17:12:33.250Z,11.80
2019-03-27T17:15:01.791Z,11.80
2019-03-27T17:17:30.254Z,11.80
2019-03-27T17:19:58.757Z,11.80
2019-03-27T17:22:27.305Z,11.80
2019-03-27T17:24:56.224Z,11.80
2019-03-27T17:27:24.832Z,11.80
2019-03-27T17:29:53.483Z,11.80
2019-03-27T17:32:22.195Z,11.80
2019-03-27T17:34:52.027Z,11.70
2019-03-27T17:37:20.800Z,11.70
2019-03-27T17:39:49.857Z,11.60
2019-03-27T17:42:18.445Z,11.50
2019-03-27T17:44:46.915Z,11.60
2019-03-27T17:47:15.500Z,11.50
2019-03-27T17:49:44.130Z,11.50
2019-03-27T17:52:12.737Z,11.40
2019-03-27T17:54:41.393Z,11.40
2019-03-27T17:57:09.822Z,11.50
2019-03-27T17:59:38.345Z,11.50
2019-03-27T18:02:07.081Z,11.40
2019-03-27T18:04:35.629Z,11.40
2019-03-27T18:07:04.375Z,11.40
2019-03-27T18:09:32.979Z,11.30
2019-03-27T18:12:01.551Z,11.20
2019-03-27T18:14:30.055Z,11.20
2019-03-27T18:16:58.614Z,11.10
2019-03-27T18:19:27.090Z,11.10
2019-03-27T18:22:07.029Z,11.10
2019-03-27T18:24:25.995Z,11.20
2019-03-27T18:26:54.613Z,11.10
2019-03-27T18:29:23.067Z,11.10
2019-03-27T18:31:51.752Z,11.10
2019-03-27T18:34:20.325Z,11.10
2019-03-27T18:36:48.824Z,11.10
2019-03-27T18:39:17.328Z,11.10
2019-03-27T18:41:45.970Z,11.00
2019-03-27T18:44:14.420Z,11.00
2019-03-27T18:46:42.987Z,10.90
2019-03-27T18:49:11.563Z,10.90
2019-03-27T18:51:40.010Z,10.80
2019-03-27T18:54:08.612Z,10.90
2019-03-27T18:56:37.222Z,10.90
2019-03-27T18:59:05.775Z,10.90
2019-03-27T19:01:34.315Z,10.80
2019-03-27T19:04:02.883Z,10.80
2019-03-27T19:06:31.390Z,10.70
2019-03-27T19:08:59.871Z,10.80
2019-03-27T19:11:28.566Z,10.80
2019-03-27T19:13:57.193Z,10.80
2019-03-27T19:16:26.255Z,10.70
2019-03-27T19:18:54.748Z,10.60
2019-03-27T19:21:23.324Z,10.70
2019-03-27T19:23:52.002Z,10.60
2019-03-27T19:26:20.507Z,10.60
2019-03-27T19:28:49.051Z,10.50
2019-03-27T19:31:17.815Z,10.50
2019-03-27T19:33:46.428Z,10.40
2019-03-27T19:36:14.930Z,10.40
2019-03-27T19:38:43.493Z,10.40
2019-03-27T19:41:12.086Z,10.30
2019-03-27T19:43:40.661Z,10.20
2019-03-27T19:46:09.199Z,10.20
2019-03-27T19:48:37.713Z,10.20
2019-03-27T19:51:06.374Z,10.20
2019-03-27T19:53:35.058Z,10.10
2019-03-27T19:56:03.631Z,10.20
2019-03-27T19:58:32.202Z,10.10
2019-03-27T20:01:00.747Z,10.10
2019-03-27T20:03:29.313Z,10.00
2019-03-27T20:05:57.794Z,10.00
2019-03-27T20:08:26.431Z,10.00
2019-03-27T20:10:55.018Z,10.00
2019-03-27T20:13:23.574Z,10.00
2019-03-27T20:15:52.227Z,9.90
2019-03-27T20:18:20.831Z,9.90
2019-03-27T20:20:49.307Z,9.80
2019-03-27T20:23:17.823Z,9.80
2019-03-27T20:25:46.369Z,9.80
2019-03-27T20:28:14.959Z,9.70
2019-03-27T20:30:43.511Z,9.70
2019-03-27T20:33:11.972Z,9.60
2019-03-27T20:35:40.817Z,9.60
2019-03-27T20:38:09.392Z,9.60
2019-03-27T20:40:38.151Z,9.70
2019-03-27T20:43:06.698Z,9.60
2019-03-27T20:45:35.176Z,9.60
2019-03-27T20:48:03.753Z,9.60
2019-03-27T20:50:32.215Z,9.50
2019-03-27T20:53:00.686Z,9.50
2019-03-27T20:55:30.609Z,9.40
2019-03-27T20:57:59.647Z,9.30
2019-03-27T21:00:28.245Z,9.30
2019-03-27T21:02:56.841Z,9.30
2019-03-27T21:05:25.310Z,9.20
2019-03-27T21:07:53.805Z,9.20
2019-03-27T21:10:22.305Z,9.10
2019-03-27T21:12:50.808Z,9.10
2019-03-27T21:15:19.272Z,9.00
2019-03-27T21:17:47.838Z,9.00
2019-03-27T21:20:16.443Z,9.00
2019-03-27T21:22:45.037Z,9.00
2019-03-27T21:25:13.968Z,8.90
2019-03-27T21:27:42.584Z,8.90
2019-03-27T21:30:12.551Z,8.80
2019-03-27T21:32:41.106Z,8.70
2019-03-27T21:35:09.691Z,8.70
2019-03-27T21:37:38.246Z,8.60
2019-03-27T21:40:08.136Z,8.60
2019-03-27T21:42:36.635Z,8.60
2019-03-27T21:45:07.215Z,8.50
2019-03-27T21:47:35.754Z,8.50
2019-03-27T21:50:06.361Z,8.50
2019-03-27T21:52:34.908Z,8.60
2019-03-27T21:55:04.283Z,8.60
2019-03-27T21:57:32.789Z,8.50
2019-03-27T22:00:01.333Z,8.50
2019-03-27T22:02:29.831Z,8.40
2019-03-27T22:04:58.359Z,8.40
2019-03-27T22:07:26.831Z,8.40
2019-03-27T22:09:55.308Z,8.30
2019-03-27T22:12:23.767Z,8.20
2019-03-27T22:14:52.348Z,8.20
2019-03-27T22:17:20.868Z,8.20
2019-03-27T22:19:49.364Z,8.10
2019-03-27T22:22:17.813Z,8.00
2019-03-27T22:24:46.356Z,8.00
2019-03-27T22:27:14.818Z,8.00
2019-03-27T22:29:43.384Z,8.00
2019-03-27T22:32:12.082Z,8.00
2019-03-27T22:34:40.622Z,8.00
2019-03-27T22:37:09.072Z,8.00
2019-03-27T22:39:37.610Z,8.00
2019-03-27T22:42:06.150Z,8.00
2019-03-27T22:44:34.626Z,8.00
2019-03-27T22:47:03.092Z,8.00
2019-03-27T22:49:31.734Z,7.90
2019-03-27T22:52:00.302Z,7.90
2019-03-27T22:54:28.833Z,7.80
2019-03-27T22:56:57.396Z,7.80
2019-03-27T22:59:25.808Z,7.80
2019-03-27T23:01:54.592Z,7.80
2019-03-27T23:04:23.112Z,7.70
2019-03-27T23:06:51.602Z,7.60
2019-03-27T23:09:20.311Z,7.60
2019-03-27T23:11:48.937Z,7.60
2019-03-27T23:14:17.378Z,7.50
2019-03-27T23:16:45.869Z,7.50
2019-03-27T23:19:14.327Z,7.50
2019-03-27T23:21:42.917Z,7.40
2019-03-27T23:24:11.466Z,7.40
2019-03-27T23:26:39.952Z,7.30
2019-03-27T23:29:08.477Z,7.20
2019-03-27T23:31:37.006Z,7.30
2019-03-27T23:34:05.549Z,7.20
2019-03-27T23:36:34.048Z,7.10
2019-03-27T23:39:02.785Z,7.10
2019-03-27T23:41:31.275Z,7.10
2019-03-27T23:43:59.755Z,7.10
2019-03-27T23:46:28.198Z,7.10
2019-03-27T23:48:56.671Z,7.00
2019-03-27T23:51:25.159Z,7.00
2019-03-27T23:53:54.005Z,7.00
2019-03-27T23:56:23.103Z,6.90
2019-03-27T23:58:51.688Z,6.80
